Time;durP1;ratioP1;P1;durP2;ratioP2;P2;SDS_P1;SDS_P2;PMS_P1;PMS_P2;Temp;Humidity;BMP_temperature;BMP_pressure;BME280_temperature;BME280_humidity;BME280_pressure;Samples;Min_cycle;Max_cycle;Signal;HPM_P1;HPM_P2
2022/04/06 00:00:11;;;;;;;27.10;12.13;;;8.70;99.90;;;;;;5078133;28;20488;-74
2022/04/06 00:02:39;;;;;;;29.63;12.18;;;8.70;99.90;;;;;;5077787;28;20040;-73
2022/04/06 00:05:06;;;;;;;24.13;11.57;;;8.80;99.90;;;;;;5077793;28;20519;-73
2022/04/06 00:07:31;;;;;;;30.58;11.93;;;8.80;99.90;;;;;;5061087;28;20487;-73
2022/04/06 00:09:57;;;;;;;25.75;11.65;;;8.80;99.90;;;;;;5077704;28;20042;-74
2022/04/06 00:12:23;;;;;;;29.08;11.45;;;8.80;99.90;;;;;;5077597;28;20117;-74
2022/04/06 00:14:48;;;;;;;30.33;11.80;;;8.80;99.90;;;;;;5077556;28;20446;-74
2022/04/06 00:17:14;;;;;;;29.00;11.77;;;8.80;99.90;;;;;;5077756;28;20036;-73
2022/04/06 00:19:40;;;;;;;24.52;11.40;;;8.80;99.90;;;;;;5077559;28;20102;-73
2022/04/06 00:22:06;;;;;;;29.27;11.32;;;8.80;99.90;;;;;;5077459;28;20036;-73
2022/04/06 00:24:32;;;;;;;29.65;11.10;;;8.80;99.90;;;;;;5077322;28;20492;-73
2022/04/06 00:26:57;;;;;;;25.20;10.65;;;8.80;99.90;;;;;;5060899;28;20087;-74
2022/04/06 00:29:23;;;;;;;26.60;10.93;;;8.80;99.90;;;;;;5077205;28;20488;-73
2022/04/06 00:31:49;;;;;;;26.33;10.35;;;8.80;99.90;;;;;;5060748;28;20039;-75
2022/04/06 00:34:14;;;;;;;30.23;10.63;;;8.80;99.90;;;;;;5077237;28;20542;-73
2022/04/06 00:36:40;;;;;;;28.50;10.25;;;8.80;99.90;;;;;;5077214;28;20028;-74
2022/04/06 00:39:06;;;;;;;25.60;11.45;;;8.90;99.90;;;;;;5076937;28;20040;-73
2022/04/06 00:41:32;;;;;;;22.42;10.02;;;8.90;99.90;;;;;;5077114;28;20051;-73
2022/04/06 00:44:15;;;;;;;26.40;12.00;;;8.90;99.90;;;;;;5077092;28;20036;-73
2022/04/06 00:46:45;;;;;;;25.55;11.15;;;8.90;99.90;;;;;;5077251;28;20051;-73
2022/04/06 00:49:14;;;;;;;27.40;11.82;;;8.90;99.90;;;;;;5076904;28;20304;-73
2022/04/06 00:51:48;;;;;;;25.05;11.77;;;8.90;99.90;;;;;;5076927;28;20039;-74
2022/04/06 00:54:15;;;;;;;23.10;12.02;;;8.90;99.90;;;;;;5076880;28;20492;-73
2022/04/06 00:56:43;;;;;;;28.85;11.65;;;8.90;99.90;;;;;;5060139;28;20142;-74
2022/04/06 00:59:09;;;;;;;27.65;12.43;;;8.90;99.90;;;;;;5076926;28;20043;-73
2022/04/06 01:01:36;;;;;;;23.52;12.05;;;8.90;99.90;;;;;;5076704;28;20119;-73
2022/04/06 01:04:01;;;;;;;24.25;12.52;;;8.90;99.90;;;;;;5076612;28;20044;-73
2022/04/06 01:06:27;;;;;;;30.35;12.93;;;8.90;99.90;;;;;;5060028;28;20086;-73
2022/04/06 01:08:53;;;;;;;26.25;12.55;;;8.90;99.90;;;;;;5076394;28;20098;-73
2022/04/06 01:11:20;;;;;;;23.67;12.63;;;8.90;99.90;;;;;;5077043;28;20028;-73
2022/04/06 01:13:47;;;;;;;32.58;11.63;;;8.90;99.90;;;;;;5059851;28;20036;-73
2022/04/06 01:16:13;;;;;;;30.63;12.27;;;8.90;99.90;;;;;;5059692;28;20036;-73
2022/04/06 01:18:40;;;;;;;25.17;12.07;;;8.90;99.90;;;;;;5076222;28;20496;-73
2022/04/06 01:21:07;;;;;;;27.58;12.57;;;8.90;99.90;;;;;;5076342;28;20089;-73
2022/04/06 01:23:33;;;;;;;36.58;12.93;;;8.90;99.90;;;;;;5075553;28;20534;-73
2022/04/06 01:25:58;;;;;;;31.83;12.85;;;8.90;99.90;;;;;;5076233;28;20071;-73
2022/04/06 01:28:24;;;;;;;31.60;12.68;;;8.90;99.90;;;;;;5076037;28;20109;-73
2022/04/06 01:30:50;;;;;;;24.08;12.00;;;8.90;99.90;;;;;;5076190;28;20032;-73
2022/04/06 01:33:16;;;;;;;30.42;11.98;;;8.90;99.90;;;;;;5059643;28;20032;-73
2022/04/06 01:35:42;;;;;;;26.55;11.70;;;8.90;99.90;;;;;;5076193;28;20043;-73
2022/04/06 01:38:09;;;;;;;25.05;11.38;;;8.90;99.90;;;;;;5076014;28;20043;-73
2022/04/06 01:40:35;;;;;;;27.50;10.88;;;8.90;99.90;;;;;;5077073;28;20052;-74
2022/04/06 01:43:01;;;;;;;31.63;10.88;;;8.90;99.90;;;;;;5076100;28;20036;-74
2022/04/06 01:45:27;;;;;;;23.45;10.18;;;8.90;99.90;;;;;;5076075;28;20454;-73
2022/04/06 01:47:53;;;;;;;27.17;10.90;;;8.90;99.90;;;;;;5075641;28;20500;-73
2022/04/06 01:53:03;;;;;;;27.00;10.27;;;8.90;99.90;;;;;;5075630;28;20040;-73
2022/04/06 01:55:29;;;;;;;26.00;10.00;;;8.90;99.90;;;;;;5059463;28;20093;-73
2022/04/06 01:57:56;;;;;;;23.60;9.50;;;8.90;99.90;;;;;;5075577;28;20487;-73
2022/04/06 02:00:21;;;;;;;20.92;9.57;;;8.90;99.90;;;;;;5075916;28;20059;-74
2022/04/06 02:02:51;;;;;;;23.55;9.50;;;8.90;99.90;;;;;;5059192;28;20408;-74
2022/04/06 02:05:18;;;;;;;28.95;9.90;;;8.90;99.90;;;;;;5075761;28;20404;-73
2022/04/06 02:07:46;;;;;;;20.45;9.10;;;8.90;99.90;;;;;;5075318;28;20036;-73
2022/04/06 02:10:12;;;;;;;21.35;8.68;;;8.90;99.90;;;;;;5075710;28;20036;-73
2022/04/06 02:12:39;;;;;;;19.23;8.07;;;8.90;99.90;;;;;;5075475;28;20039;-73
2022/04/06 02:15:08;;;;;;;19.52;8.43;;;8.90;99.90;;;;;;5075350;28;20032;-73
2022/04/06 02:17:33;;;;;;;20.48;8.23;;;8.90;99.90;;;;;;5075534;28;20043;-73
2022/04/06 02:19:59;;;;;;;19.23;8.00;;;8.90;99.90;;;;;;5075629;28;20044;-73
2022/04/06 02:22:25;;;;;;;18.13;8.35;;;8.90;99.90;;;;;;5075338;28;20040;-74
2022/04/06 02:24:50;;;;;;;21.42;7.57;;;9.00;99.90;;;;;;5075257;28;20047;-73
2022/04/06 02:27:16;;;;;;;19.85;6.82;;;9.00;99.90;;;;;;5075155;28;20043;-73
2022/04/06 02:29:41;;;;;;;18.90;6.82;;;8.90;99.90;;;;;;5075197;28;20040;-74
2022/04/06 02:32:08;;;;;;;17.58;6.78;;;9.00;99.90;;;;;;5058830;28;20048;-73
2022/04/06 02:34:34;;;;;;;19.92;6.80;;;9.00;99.90;;;;;;5058658;28;20035;-73
2022/04/06 02:37:00;;;;;;;18.88;6.80;;;9.00;99.90;;;;;;5075184;28;20039;-74
2022/04/06 02:39:26;;;;;;;17.85;7.30;;;9.00;99.90;;;;;;5074937;28;20047;-73
2022/04/06 02:41:52;;;;;;;19.70;7.63;;;9.00;99.90;;;;;;5075378;28;20047;-74
2022/04/06 02:44:17;;;;;;;19.95;6.78;;;8.90;99.90;;;;;;5075009;28;20036;-74
2022/04/06 02:46:45;;;;;;;19.05;7.45;;;8.90;99.90;;;;;;5058397;28;20048;-73
2022/04/06 02:49:10;;;;;;;20.58;7.20;;;8.90;99.90;;;;;;5075035;28;20040;-73
2022/04/06 02:51:36;;;;;;;18.83;6.88;;;8.90;99.90;;;;;;5075248;28;20503;-74
2022/04/06 02:54:02;;;;;;;15.55;6.20;;;8.90;99.90;;;;;;5074967;28;20157;-74
2022/04/06 02:56:28;;;;;;;17.27;6.47;;;8.90;99.90;;;;;;5075228;28;20044;-73
2022/04/06 02:58:54;;;;;;;18.25;6.95;;;8.90;99.90;;;;;;5074921;28;20043;-73
2022/04/06 03:01:20;;;;;;;17.02;6.47;;;8.90;99.90;;;;;;5075785;28;20036;-74
2022/04/06 03:03:46;;;;;;;15.68;6.30;;;8.90;99.90;;;;;;5058222;28;20047;-74
2022/04/06 03:06:11;;;;;;;21.15;6.47;;;8.90;99.90;;;;;;5074875;28;20067;-73
2022/04/06 03:08:37;;;;;;;20.02;7.18;;;8.90;99.90;;;;;;5058089;28;20169;-73
2022/04/06 03:11:03;;;;;;;20.80;6.97;;;8.90;99.90;;;;;;5075124;28;20036;-73
2022/04/06 03:13:29;;;;;;;17.30;7.07;;;8.90;99.90;;;;;;5074788;28;20373;-74
2022/04/06 03:15:54;;;;;;;20.52;7.80;;;8.90;99.90;;;;;;5075026;28;20066;-74
2022/04/06 03:18:20;;;;;;;25.30;8.68;;;8.90;99.90;;;;;;5074618;28;20463;-73
2022/04/06 03:20:46;;;;;;;20.63;7.32;;;8.90;99.90;;;;;;5075042;28;20036;-73
2022/04/06 03:23:12;;;;;;;24.73;7.97;;;8.90;99.90;;;;;;5074976;28;20040;-74
2022/04/06 03:25:37;;;;;;;24.85;9.23;;;8.90;99.90;;;;;;5074747;28;20086;-74
2022/04/06 03:28:04;;;;;;;21.63;8.85;;;8.80;99.90;;;;;;5074762;28;20040;-73
2022/04/06 03:30:29;;;;;;;22.88;9.15;;;8.80;99.90;;;;;;5074866;28;20032;-74
2022/04/06 03:32:55;;;;;;;24.50;9.05;;;8.90;99.90;;;;;;5074674;28;20097;-74
2022/04/06 03:35:21;;;;;;;26.55;9.93;;;8.90;99.90;;;;;;5074627;28;20089;-73
2022/04/06 03:37:46;;;;;;;27.38;9.60;;;8.90;99.90;;;;;;5074625;28;20044;-73
2022/04/06 03:40:13;;;;;;;29.85;10.60;;;8.90;99.90;;;;;;5074575;28;20040;-74
2022/04/06 03:42:38;;;;;;;29.27;9.68;;;8.90;99.90;;;;;;5074573;28;20044;-74
2022/04/06 03:45:05;;;;;;;30.42;10.32;;;8.90;99.90;;;;;;5074539;28;20090;-74
2022/04/06 03:47:32;;;;;;;26.80;9.98;;;8.90;99.90;;;;;;5060977;28;20396;-73
2022/04/06 03:49:59;;;;;;;31.05;10.68;;;8.90;99.90;;;;;;5061286;28;20040;-73
2022/04/06 03:52:25;;;;;;;35.70;11.57;;;8.90;99.90;;;;;;5078272;28;20369;-73
2022/04/06 03:54:51;;;;;;;26.60;10.93;;;8.90;99.90;;;;;;5077969;28;20420;-73
2022/04/06 03:57:17;;;;;;;33.15;11.15;;;8.90;99.90;;;;;;5078136;28;20127;-73
2022/04/06 03:59:43;;;;;;;33.90;12.00;;;8.90;99.90;;;;;;5077836;28;20458;-73
2022/04/06 04:02:09;;;;;;;33.00;12.15;;;8.90;99.90;;;;;;5077863;28;20044;-73
2022/04/06 04:04:34;;;;;;;34.47;11.70;;;8.90;99.90;;;;;;5077881;28;20036;-73
2022/04/06 04:07:01;;;;;;;31.20;11.27;;;9.00;99.90;;;;;;5078086;28;20039;-73
2022/04/06 04:09:28;;;;;;;29.13;11.57;;;9.00;99.90;;;;;;5077514;28;20097;-74
2022/04/06 04:11:56;;;;;;;29.17;11.25;;;9.00;99.90;;;;;;5060994;28;20054;-74
2022/04/06 04:14:22;;;;;;;36.55;12.05;;;9.00;99.90;;;;;;5077594;28;20040;-74
2022/04/06 04:16:48;;;;;;;31.50;10.73;;;9.00;99.90;;;;;;5077590;28;20075;-73
2022/04/06 04:19:13;;;;;;;28.90;11.00;;;9.00;99.90;;;;;;5077521;28;20071;-73
2022/04/06 04:21:39;;;;;;;32.25;11.13;;;9.00;99.90;;;;;;5060854;28;20102;-74
2022/04/06 04:24:09;;;;;;;28.70;9.60;;;9.00;99.90;;;;;;5077507;28;20044;-73
2022/04/06 04:26:36;;;;;;;24.77;8.88;;;9.00;99.90;;;;;;5077338;28;20032;-74
2022/04/06 04:29:03;;;;;;;29.52;9.15;;;9.00;99.90;;;;;;5060479;28;20516;-73
2022/04/06 04:31:29;;;;;;;20.92;8.60;;;9.00;99.90;;;;;;5060635;28;20036;-74
2022/04/06 04:33:55;;;;;;;24.67;8.68;;;9.00;99.90;;;;;;5077262;28;20040;-74
2022/04/06 04:36:21;;;;;;;27.48;8.10;;;9.00;99.90;;;;;;5077230;28;20115;-73
2022/04/06 04:38:47;;;;;;;21.73;7.88;;;9.00;99.90;;;;;;5060274;28;20075;-73
2022/04/06 04:41:13;;;;;;;20.33;7.32;;;9.00;99.90;;;;;;5060778;28;20131;-74
2022/04/06 04:43:38;;;;;;;22.00;7.32;;;9.00;99.90;;;;;;5060683;28;20032;-74
2022/04/06 04:46:04;;;;;;;19.90;6.90;;;9.00;99.90;;;;;;5077326;28;20621;-73
2022/04/06 04:48:30;;;;;;;20.60;7.70;;;9.00;99.90;;;;;;5076854;28;20459;-73
2022/04/06 04:50:56;;;;;;;21.65;7.50;;;9.00;99.90;;;;;;5077170;28;20040;-73
2022/04/06 04:53:22;;;;;;;15.88;5.93;;;8.90;99.90;;;;;;5077178;28;20043;-73
2022/04/06 04:55:48;;;;;;;25.27;6.60;;;8.90;99.90;;;;;;5077124;28;20399;-74
2022/04/06 04:58:13;;;;;;;19.30;5.80;;;8.90;99.90;;;;;;5058903;28;20587;-73
2022/04/06 05:00:39;;;;;;;19.63;5.35;;;8.90;99.90;;;;;;5076759;28;20069;-74
2022/04/06 05:03:05;;;;;;;18.75;5.05;;;8.90;99.90;;;;;;5059960;28;20047;-74
2022/04/06 05:05:31;;;;;;;17.60;5.05;;;8.90;99.90;;;;;;5059983;28;20036;-74
2022/04/06 05:07:59;;;;;;;15.45;4.57;;;8.90;99.90;;;;;;5076475;28;20075;-73
2022/04/06 05:10:25;;;;;;;18.55;4.95;;;8.90;99.90;;;;;;5076542;28;20124;-74
2022/04/06 05:12:52;;;;;;;20.20;4.93;;;8.90;99.90;;;;;;5059872;28;20123;-74
2022/04/06 05:15:19;;;;;;;16.25;4.88;;;8.90;99.90;;;;;;5076407;28;20043;-73
2022/04/06 05:17:45;;;;;;;16.60;3.95;;;8.80;99.90;;;;;;5059938;28;20070;-73
2022/04/06 05:20:11;;;;;;;13.43;3.75;;;8.90;99.90;;;;;;5076522;28;20067;-74
2022/04/06 05:22:37;;;;;;;14.40;3.80;;;8.80;99.90;;;;;;5076275;28;20032;-74
2022/04/06 05:25:04;;;;;;;16.02;3.40;;;8.80;99.90;;;;;;5059583;28;20161;-73
2022/04/06 05:27:31;;;;;;;16.65;3.90;;;8.80;99.90;;;;;;5076355;28;20043;-73
2022/04/06 05:29:57;;;;;;;15.07;3.65;;;8.80;99.90;;;;;;5059402;28;20032;-73
2022/04/06 05:32:22;;;;;;;14.95;3.65;;;8.80;99.90;;;;;;5076401;28;20062;-74
2022/04/06 05:34:48;;;;;;;18.27;4.13;;;8.80;99.90;;;;;;5076343;28;20488;-74
2022/04/06 05:37:13;;;;;;;12.57;3.90;;;8.80;99.90;;;;;;5076090;28;20510;-73
2022/04/06 05:39:39;;;;;;;15.32;3.70;;;8.80;99.90;;;;;;5077131;28;20464;-73
2022/04/06 05:42:05;;;;;;;12.63;3.95;;;8.80;99.90;;;;;;5075944;28;20040;-73
2022/04/06 05:44:30;;;;;;;14.95;3.78;;;8.70;99.90;;;;;;5076346;28;20044;-74
2022/04/06 05:46:56;;;;;;;12.43;3.83;;;8.70;99.90;;;;;;5075788;28;20040;-73
2022/04/06 05:49:21;;;;;;;15.88;3.90;;;8.70;99.90;;;;;;5075682;28;20123;-73
2022/04/06 05:51:48;;;;;;;13.43;4.13;;;8.70;99.90;;;;;;5075779;28;20117;-73
2022/04/06 05:54:14;;;;;;;11.77;3.85;;;8.70;99.90;;;;;;5076008;28;20097;-73
2022/04/06 05:56:40;;;;;;;17.05;4.10;;;8.70;99.90;;;;;;5075688;28;20123;-74
2022/04/06 05:59:06;;;;;;;12.43;3.97;;;8.70;99.90;;;;;;5075598;28;20039;-73
2022/04/06 06:01:32;;;;;;;18.38;3.72;;;8.70;99.90;;;;;;5059275;28;20039;-74
2022/04/06 06:03:58;;;;;;;16.83;3.70;;;8.70;99.90;;;;;;5058952;28;20082;-74
2022/04/06 06:06:23;;;;;;;17.20;4.80;;;8.70;99.90;;;;;;5075516;28;20042;-74
2022/04/06 06:08:49;;;;;;;12.35;3.75;;;8.60;99.90;;;;;;5075098;28;20040;-73
2022/04/06 06:11:14;;;;;;;13.20;3.92;;;8.60;99.90;;;;;;5075493;28;20028;-74
2022/04/06 06:13:40;;;;;;;14.80;4.00;;;8.60;99.90;;;;;;5075711;28;20081;-74
2022/04/06 06:16:06;;;;;;;12.98;4.03;;;8.50;99.90;;;;;;5075448;28;20496;-73
2022/04/06 06:18:31;;;;;;;17.17;4.13;;;8.50;99.90;;;;;;5075240;28;20050;-74
2022/04/06 06:20:59;;;;;;;11.80;3.33;;;8.40;99.90;;;;;;5075337;28;20040;-74
2022/04/06 06:23:24;;;;;;;11.80;3.47;;;8.50;99.90;;;;;;5075323;28;20487;-74
2022/04/06 06:25:50;;;;;;;16.77;4.20;;;8.40;99.90;;;;;;5075285;28;20080;-73
2022/04/06 06:28:15;;;;;;;12.70;3.88;;;8.40;99.90;;;;;;5075087;28;20118;-73
2022/04/06 06:30:42;;;;;;;15.90;3.55;;;8.40;99.90;;;;;;5075222;28;20036;-73
2022/04/06 06:33:07;;;;;;;15.25;3.70;;;8.40;99.90;;;;;;5058745;28;20028;-74
2022/04/06 06:35:33;;;;;;;18.15;3.58;;;8.30;99.90;;;;;;5075452;28;20492;-74
2022/04/06 06:37:59;;;;;;;12.30;2.92;;;8.30;99.90;;;;;;5058234;28;20039;-73
2022/04/06 06:40:28;;;;;;;12.18;3.45;;;8.30;99.90;;;;;;5075439;28;20040;-73
2022/04/06 06:42:54;;;;;;;12.00;3.42;;;8.30;99.90;;;;;;5075420;28;20098;-73
2022/04/06 06:45:19;;;;;;;13.77;3.97;;;8.30;99.90;;;;;;5058667;28;20484;-73
2022/04/06 06:47:46;;;;;;;14.82;4.18;;;8.30;99.90;;;;;;5074992;28;20036;-72
2022/04/06 06:50:14;;;;;;;11.63;3.33;;;8.30;99.90;;;;;;5074984;28;20082;-72
2022/04/06 06:52:40;;;;;;;12.50;3.38;;;8.30;99.90;;;;;;5075022;28;20040;-72
2022/04/06 06:55:07;;;;;;;16.75;3.70;;;8.30;99.90;;;;;;5075265;28;20028;-72
2022/04/06 06:57:34;;;;;;;19.42;4.93;;;8.40;99.90;;;;;;5074960;28;20076;-72
2022/04/06 06:59:59;;;;;;;18.40;3.70;;;8.30;99.90;;;;;;5075209;28;20492;-71
2022/04/06 07:02:25;;;;;;;10.82;2.80;;;8.30;99.90;;;;;;5075199;28;20093;-71
2022/04/06 07:04:51;;;;;;;17.98;3.30;;;8.40;99.90;;;;;;5074939;28;20044;-71
2022/04/06 07:07:16;;;;;;;10.43;2.55;;;8.30;99.90;;;;;;5074812;28;20036;-71
2022/04/06 07:09:42;;;;;;;22.02;4.03;;;8.30;99.90;;;;;;5058059;28;20044;-71
2022/04/06 07:12:08;;;;;;;13.00;3.70;;;8.30;99.90;;;;;;5074821;28;20092;-71
2022/04/06 07:14:33;;;;;;;14.30;3.55;;;8.30;99.90;;;;;;5075035;28;20067;-71
2022/04/06 07:16:59;;;;;;;12.75;3.42;;;8.40;99.90;;;;;;5074791;28;20488;-71
2022/04/06 07:19:25;;;;;;;14.13;3.35;;;8.30;99.90;;;;;;5074696;28;20036;-71
2022/04/06 07:21:51;;;;;;;16.65;3.42;;;8.30;99.90;;;;;;5076886;28;20549;-71
2022/04/06 07:24:17;;;;;;;18.08;3.63;;;8.30;99.90;;;;;;5078573;28;20068;-71
2022/04/06 07:26:43;;;;;;;17.83;3.83;;;8.40;99.90;;;;;;5078834;28;20077;-71
2022/04/06 07:29:11;;;;;;;10.38;4.00;;;8.40;99.90;;;;;;5078459;28;20036;-71
2022/04/06 07:31:38;;;;;;;15.88;3.45;;;8.30;99.90;;;;;;5078484;28;20036;-71
2022/04/06 07:34:04;;;;;;;15.90;3.70;;;8.40;99.90;;;;;;5078410;28;20044;-71
2022/04/06 07:36:31;;;;;;;19.33;3.72;;;8.40;99.90;;;;;;5078381;28;20488;-73
2022/04/06 07:38:58;;;;;;;18.52;4.45;;;8.40;99.90;;;;;;5078358;28;20044;-72
2022/04/06 07:41:25;;;;;;;16.60;3.97;;;8.40;99.90;;;;;;5079063;28;20044;-71
2022/04/06 07:43:51;;;;;;;21.27;4.40;;;8.40;99.90;;;;;;5061578;28;20553;-71
2022/04/06 07:46:16;;;;;;;15.27;3.95;;;8.40;99.90;;;;;;5061813;28;20048;-71
2022/04/06 07:48:42;;;;;;;16.13;3.78;;;8.40;99.90;;;;;;5078008;28;20695;-71
2022/04/06 07:51:08;;;;;;;16.23;4.10;;;8.50;99.90;;;;;;5061408;28;20036;-71
2022/04/06 07:53:33;;;;;;;20.38;4.10;;;8.50;99.90;;;;;;5078080;28;20040;-71
2022/04/06 07:55:59;;;;;;;13.43;4.00;;;8.50;99.90;;;;;;5077958;28;20028;-71
2022/04/06 07:58:24;;;;;;;17.88;4.10;;;8.60;99.90;;;;;;5077899;28;20123;-71
2022/04/06 08:00:50;;;;;;;17.92;4.18;;;8.60;99.90;;;;;;5077922;28;20136;-71
2022/04/06 08:03:16;;;;;;;16.65;4.60;;;8.60;99.90;;;;;;5077859;28;20047;-71
2022/04/06 08:05:41;;;;;;;17.08;4.45;;;8.60;99.90;;;;;;5078065;28;20044;-71
2022/04/06 08:08:07;;;;;;;17.58;4.68;;;8.60;99.90;;;;;;5077653;28;20457;-72
2022/04/06 08:10:33;;;;;;;23.80;4.57;;;8.70;99.90;;;;;;5061085;28;20040;-72
2022/04/06 08:12:58;;;;;;;18.35;4.32;;;8.70;99.90;;;;;;5077946;28;20030;-72
2022/04/06 08:15:24;;;;;;;24.48;4.88;;;8.70;99.90;;;;;;5077657;28;20530;-72
2022/04/06 08:17:49;;;;;;;19.90;5.53;;;8.60;99.90;;;;;;5077546;28;20044;-71
2022/04/06 08:20:16;;;;;;;22.63;5.10;;;8.70;99.90;;;;;;5077547;28;20040;-71
2022/04/06 08:22:44;;;;;;;16.20;5.60;;;8.70;99.90;;;;;;5077760;28;20093;-71
2022/04/06 08:25:25;;;;;;;25.48;6.45;;;8.70;99.90;;;;;;5077638;28;20089;-71
2022/04/06 08:27:51;;;;;;;19.02;5.80;;;8.70;99.90;;;;;;5077511;28;20054;-71
2022/04/06 08:30:29;;;;;;;18.23;5.22;;;8.60;99.90;;;;;;5077357;28;20032;-71
2022/04/06 08:32:58;;;;;;;23.65;5.63;;;8.60;99.90;;;;;;5077144;28;20040;-71
2022/04/06 08:35:24;;;;;;;13.70;5.45;;;8.60;99.90;;;;;;5077262;28;20032;-71
2022/04/06 08:37:51;;;;;;;21.42;5.45;;;8.60;99.90;;;;;;5077108;28;20036;-71
2022/04/06 08:40:17;;;;;;;19.70;6.70;;;8.60;99.90;;;;;;5077211;28;20047;-71
2022/04/06 08:42:44;;;;;;;25.10;5.68;;;8.60;99.90;;;;;;5077136;28;20126;-71
2022/04/06 08:45:10;;;;;;;22.00;5.28;;;8.60;99.90;;;;;;5060559;28;20051;-71
2022/04/06 08:47:36;;;;;;;19.60;5.38;;;8.70;99.90;;;;;;5077219;28;20044;-71
2022/04/06 08:50:03;;;;;;;22.45;5.55;;;8.60;99.90;;;;;;5060270;28;20036;-71
2022/04/06 08:52:34;;;;;;;16.08;5.15;;;8.60;99.90;;;;;;5060273;28;20032;-71
2022/04/06 08:55:00;;;;;;;19.38;5.18;;;8.70;99.90;;;;;;5076929;28;20068;-71
2022/04/06 08:57:27;;;;;;;17.95;5.18;;;8.60;99.90;;;;;;5077059;28;20063;-71
2022/04/06 08:59:54;;;;;;;18.85;4.68;;;8.60;99.90;;;;;;5076829;28;20048;-71
2022/04/06 09:02:20;;;;;;;21.13;4.90;;;8.60;99.90;;;;;;5077060;28;20040;-71
2022/04/06 09:04:54;;;;;;;17.10;4.80;;;8.70;99.90;;;;;;5076649;28;20040;-71
2022/04/06 09:07:24;;;;;;;12.82;4.03;;;8.70;99.90;;;;;;5076631;28;20044;-71
2022/04/06 09:09:54;;;;;;;14.48;4.40;;;8.80;99.90;;;;;;5076652;28;20101;-71
2022/04/06 09:12:22;;;;;;;16.17;4.32;;;8.80;99.90;;;;;;5076575;28;20071;-71
2022/04/06 09:14:48;;;;;;;14.07;3.72;;;8.90;99.90;;;;;;5060157;28;20036;-71
2022/04/06 09:17:20;;;;;;;14.13;3.03;;;8.90;99.90;;;;;;5076385;28;20496;-71
2022/04/06 09:19:48;;;;;;;11.63;3.17;;;9.00;99.90;;;;;;5076442;28;20044;-71
2022/04/06 09:22:13;;;;;;;12.10;3.25;;;9.10;99.90;;;;;;5076331;28;20055;-71
2022/04/06 09:24:39;;;;;;;13.43;3.38;;;9.20;99.90;;;;;;5076306;28;20032;-71
2022/04/06 09:27:05;;;;;;;14.32;3.50;;;9.20;99.90;;;;;;5076477;28;20036;-71
2022/04/06 09:29:31;;;;;;;14.50;3.35;;;9.20;99.90;;;;;;5076073;28;20051;-71
2022/04/06 09:32:10;;;;;;;9.07;3.38;;;9.20;99.90;;;;;;5076186;28;20484;-71
2022/04/06 09:34:38;;;;;;;14.55;3.30;;;9.30;99.90;;;;;;5059700;28;20118;-71
2022/04/06 09:37:26;;;;;;;11.45;2.83;;;9.20;99.90;;;;;;5076306;28;20055;-71
2022/04/06 09:39:53;;;;;;;15.95;3.60;;;9.20;99.90;;;;;;5076029;28;20420;-71
2022/04/06 09:42:25;;;;;;;16.98;3.22;;;9.20;99.90;;;;;;5076025;28;20040;-72
2022/04/06 09:47:51;;;;;;;12.23;3.47;;;9.20;99.90;;;;;;5075763;28;20184;-72
2022/04/06 09:50:26;;;;;;;12.00;3.97;;;9.30;99.90;;;;;;5075817;28;20036;-72
2022/04/06 09:52:54;;;;;;;11.23;3.08;;;9.30;99.90;;;;;;5075873;28;20078;-72
2022/04/06 09:55:21;;;;;;;14.65;3.63;;;9.40;99.90;;;;;;5075700;28;20043;-72
2022/04/06 09:57:51;;;;;;;13.43;3.80;;;9.40;99.90;;;;;;5075626;28;20097;-72
2022/04/06 10:00:37;;;;;;;15.93;4.03;;;9.50;99.90;;;;;;5058965;28;20064;-72
2022/04/06 10:03:10;;;;;;;15.07;4.18;;;9.50;99.90;;;;;;5075672;28;20064;-72
2022/04/06 10:05:38;;;;;;;15.82;4.13;;;9.50;99.90;;;;;;5075555;28;20040;-72
2022/04/06 10:08:04;;;;;;;13.38;3.95;;;9.60;99.90;;;;;;5075346;28;20492;-72
2022/04/06 10:10:35;;;;;;;13.35;4.50;;;9.60;99.90;;;;;;5059226;28;20365;-72
2022/04/06 10:13:04;;;;;;;17.35;4.90;;;9.60;99.90;;;;;;5075485;28;20036;-72
2022/04/06 10:15:30;;;;;;;11.35;4.03;;;9.60;99.90;;;;;;5075434;28;20071;-72
2022/04/06 10:17:56;;;;;;;16.17;4.90;;;9.60;99.90;;;;;;5075246;28;20079;-72
2022/04/06 10:20:35;;;;;;;15.48;4.28;;;9.60;99.90;;;;;;5058745;28;20035;-72
2022/04/06 10:23:24;;;;;;;16.95;4.72;;;9.70;99.90;;;;;;5075648;28;20044;-72
2022/04/06 10:26:04;;;;;;;14.98;4.57;;;9.70;99.90;;;;;;5058859;28;20044;-72
2022/04/06 10:28:35;;;;;;;14.57;4.90;;;9.70;99.90;;;;;;5075224;28;20496;-72
2022/04/06 10:31:15;;;;;;;21.05;5.15;;;9.70;99.90;;;;;;5075336;28;20131;-72
2022/04/06 10:33:41;;;;;;;15.48;4.78;;;9.70;99.90;;;;;;5058582;28;20113;-72
2022/04/06 10:36:32;;;;;;;16.88;5.78;;;9.70;99.90;;;;;;5075235;28;20157;-72
2022/04/06 10:39:07;;;;;;;16.08;5.43;;;9.80;99.90;;;;;;5075049;28;20036;-72
2022/04/06 10:42:11;;;;;;;15.75;4.72;;;9.70;99.90;;;;;;5075219;28;20488;-72
2022/04/06 10:44:37;;;;;;;23.38;5.60;;;9.70;99.90;;;;;;5075070;28;20047;-72
2022/04/06 10:47:11;;;;;;;17.65;5.15;;;9.70;99.90;;;;;;5075137;28;20048;-72
2022/04/06 10:49:38;;;;;;;17.88;5.35;;;9.70;99.90;;;;;;5075064;28;20071;-72
2022/04/06 10:52:23;;;;;;;13.18;4.40;;;9.80;99.90;;;;;;5075075;28;20036;-72
2022/04/06 10:54:49;;;;;;;20.52;5.72;;;9.80;99.90;;;;;;5075026;28;20036;-72
2022/04/06 10:57:14;;;;;;;20.13;5.25;;;9.70;99.90;;;;;;5078187;28;20044;-72
2022/04/06 10:59:40;;;;;;;21.20;5.32;;;9.80;99.90;;;;;;5079341;28;20047;-72
2022/04/06 11:02:25;;;;;;;16.00;5.07;;;9.80;99.90;;;;;;5062368;28;20035;-72
2022/04/06 11:04:52;;;;;;;14.73;5.60;;;9.80;99.90;;;;;;5062647;28;20120;-72
2022/04/06 11:10:29;;;;;;;20.05;6.57;;;9.80;99.90;;;;;;5078944;28;20048;-72
2022/04/06 11:13:06;;;;;;;16.30;6.72;;;9.80;99.90;;;;;;5078839;28;20040;-72
2022/04/06 11:15:41;;;;;;;19.30;7.45;;;9.70;99.90;;;;;;5078860;28;20050;-72
2022/04/06 11:18:48;;;;;;;20.00;8.02;;;9.70;99.90;;;;;;5078633;28;20040;-72
2022/04/06 11:21:14;;;;;;;20.08;8.07;;;9.70;99.90;;;;;;5078686;28;20044;-72
2022/04/06 11:23:41;;;;;;;18.30;7.78;;;9.60;99.90;;;;;;5061901;28;20043;-72
2022/04/06 11:26:06;;;;;;;18.42;8.02;;;9.60;99.90;;;;;;5078571;28;20126;-72
2022/04/06 11:28:32;;;;;;;15.80;8.73;;;9.70;99.90;;;;;;5078306;28;20122;-72
2022/04/06 11:31:02;;;;;;;19.15;7.82;;;9.70;99.90;;;;;;5078743;28;20071;-72
2022/04/06 11:33:41;;;;;;;15.13;7.38;;;9.70;99.90;;;;;;5078468;28;20040;-72
2022/04/06 11:36:13;;;;;;;16.58;8.07;;;9.80;99.90;;;;;;5078371;28;20032;-72
2022/04/06 11:38:38;;;;;;;18.42;6.82;;;9.90;99.90;;;;;;5078136;28;20040;-72
2022/04/06 11:41:04;;;;;;;22.23;7.57;;;10.00;99.90;;;;;;5078528;28;20122;-72
2022/04/06 11:43:29;;;;;;;17.10;7.25;;;10.00;99.90;;;;;;5078233;28;20040;-72
2022/04/06 11:45:57;;;;;;;19.90;7.25;;;10.00;99.90;;;;;;5078225;28;20047;-72
2022/04/06 11:48:23;;;;;;;18.52;8.13;;;10.00;99.90;;;;;;5077995;28;20459;-72
2022/04/06 11:50:49;;;;;;;21.75;7.43;;;10.00;99.90;;;;;;5078128;28;20028;-72
2022/04/06 11:53:18;;;;;;;17.40;7.03;;;9.90;99.90;;;;;;5078064;28;20189;-72
2022/04/06 11:55:49;;;;;;;23.05;7.82;;;9.90;99.90;;;;;;5077998;28;20064;-72
2022/04/06 11:58:38;;;;;;;19.13;7.82;;;9.90;99.90;;;;;;5077901;28;20032;-72
2022/04/06 12:01:07;;;;;;;16.77;7.72;;;10.00;99.90;;;;;;5077937;28;20075;-72
2022/04/06 12:03:35;;;;;;;14.68;7.97;;;10.10;99.90;;;;;;5078119;28;20040;-72
2022/04/06 12:06:02;;;;;;;17.10;8.13;;;10.30;99.90;;;;;;5077845;28;20040;-72
2022/04/06 12:08:31;;;;;;;19.52;7.75;;;10.40;99.90;;;;;;5060653;28;20043;-72
2022/04/06 12:10:57;;;;;;;23.75;7.38;;;10.50;99.90;;;;;;5077760;28;20039;-72
2022/04/06 12:13:25;;;;;;;17.30;6.75;;;10.50;99.90;;;;;;5061021;28;20032;-72
2022/04/06 12:15:51;;;;;;;18.77;7.32;;;10.50;99.90;;;;;;5077648;28;20040;-72
2022/04/06 12:18:21;;;;;;;15.25;7.72;;;10.50;99.90;;;;;;5077572;28;20119;-72
2022/04/06 12:20:47;;;;;;;19.67;8.00;;;10.50;99.90;;;;;;5077570;28;20040;-72
2022/04/06 12:23:14;;;;;;;19.58;8.20;;;10.50;99.90;;;;;;5077519;28;20039;-72
2022/04/06 12:25:40;;;;;;;18.55;7.75;;;10.50;99.90;;;;;;5077490;28;20036;-72
2022/04/06 12:28:23;;;;;;;18.67;8.38;;;10.70;99.90;;;;;;5077607;28;20070;-72
2022/04/06 12:30:55;;;;;;;16.05;7.45;;;10.90;99.90;;;;;;5060769;28;20040;-72
2022/04/06 12:33:43;;;;;;;15.32;6.70;;;11.00;99.90;;;;;;5077682;28;20040;-72
2022/04/06 12:36:16;;;;;;;15.32;6.68;;;11.00;99.90;;;;;;5077301;28;20036;-72
2022/04/06 12:38:55;;;;;;;19.77;7.18;;;11.20;99.90;;;;;;5060409;28;20040;-72
2022/04/06 12:41:22;;;;;;;17.90;7.65;;;11.20;99.90;;;;;;5060772;28;20484;-72
2022/04/06 12:43:47;;;;;;;21.33;7.55;;;11.20;99.90;;;;;;5078306;28;20044;-72
2022/04/06 12:46:13;;;;;;;16.83;6.85;;;11.20;99.90;;;;;;5077049;28;20054;-72
2022/04/06 12:48:39;;;;;;;16.65;6.40;;;11.10;99.90;;;;;;5076948;28;20044;-72
2022/04/06 12:51:21;;;;;;;16.20;6.63;;;11.00;99.90;;;;;;5077001;28;20047;-72
2022/04/06 12:53:51;;;;;;;17.10;5.93;;;11.00;99.90;;;;;;5076952;28;20085;-72